Time;durP1;ratioP1;P1;durP2;ratioP2;P2;SDS_P1;SDS_P2;PMS_P1;PMS_P2;Temp;Humidity;BMP_temperature;BMP_pressure;BME280_temperature;BME280_humidity;BME280_pressure;Samples;Min_cycle;Max_cycle;Signal;HPM_P1;HPM_P2
2022/06/08 00:00:13;;;;;;;10.00;5.45;;;9.80;99.90;;;;;;5044376;28;20041;-72
2022/06/08 00:02:40;;;;;;;12.13;5.28;;;9.70;99.90;;;;;;5066674;28;20055;-73
2022/06/08 00:05:06;;;;;;;12.10;5.18;;;9.70;99.90;;;;;;5066160;28;20720;-74
2022/06/08 00:07:32;;;;;;;12.95;4.85;;;9.70;99.90;;;;;;5065833;28;20039;-73
2022/06/08 00:09:59;;;;;;;13.45;4.85;;;9.70;99.90;;;;;;5064197;28;20447;-73
2022/06/08 00:12:25;;;;;;;14.25;5.80;;;9.70;99.90;;;;;;5065916;28;20137;-73
2022/06/08 00:14:51;;;;;;;13.40;5.57;;;9.70;99.90;;;;;;5087305;28;20052;-74
2022/06/08 00:17:18;;;;;;;15.43;5.57;;;9.60;99.90;;;;;;5049442;28;20134;-73
2022/06/08 00:19:44;;;;;;;15.57;5.60;;;9.60;99.90;;;;;;5066026;28;20036;-73
2022/06/08 00:22:11;;;;;;;11.25;5.25;;;9.60;99.90;;;;;;5067910;28;20168;-73
2022/06/08 00:24:37;;;;;;;11.90;5.25;;;9.60;99.90;;;;;;5084355;28;20115;-72
2022/06/08 00:27:05;;;;;;;19.88;6.30;;;9.60;99.90;;;;;;5066335;28;20028;-73
2022/06/08 00:29:30;;;;;;;15.35;5.93;;;9.50;99.90;;;;;;5070350;28;20454;-73
2022/06/08 00:31:56;;;;;;;11.63;5.25;;;9.60;99.90;;;;;;5068578;28;20051;-74
2022/06/08 00:34:22;;;;;;;14.32;6.00;;;9.50;99.90;;;;;;5067399;28;20040;-73
2022/06/08 00:36:48;;;;;;;12.57;5.40;;;9.50;99.90;;;;;;5051189;28;20039;-72
2022/06/08 00:39:13;;;;;;;12.98;5.28;;;9.50;99.90;;;;;;5067118;28;20123;-73
2022/06/08 00:41:53;;;;;;;11.15;5.15;;;9.50;99.90;;;;;;5080671;28;20044;-74
2022/06/08 00:44:36;;;;;;;12.65;5.85;;;9.60;99.90;;;;;;5052010;28;20529;-73
2022/06/08 00:47:04;;;;;;;16.85;5.80;;;9.50;99.90;;;;;;5050761;28;20413;-73
2022/06/08 00:49:42;;;;;;;14.80;5.80;;;9.60;99.90;;;;;;5049299;28;20050;-74
2022/06/08 00:52:09;;;;;;;13.07;5.80;;;9.50;99.90;;;;;;5086710;28;20093;-73
2022/06/08 00:54:38;;;;;;;12.35;5.28;;;9.50;99.90;;;;;;5083484;28;20067;-75
2022/06/08 00:57:23;;;;;;;12.20;5.82;;;9.50;99.90;;;;;;5066172;28;20048;-74
2022/06/08 00:59:59;;;;;;;14.98;6.13;;;9.40;99.90;;;;;;5057861;28;20040;-74
2022/06/08 01:02:25;;;;;;;13.82;5.38;;;9.40;99.90;;;;;;5066036;28;20033;-74
2022/06/08 01:05:20;;;;;;;11.82;6.00;;;9.40;99.90;;;;;;5066541;28;20043;-74
2022/06/08 01:07:47;;;;;;;10.60;5.72;;;9.40;99.90;;;;;;5083675;28;20051;-74
2022/06/08 01:10:21;;;;;;;14.05;6.30;;;9.40;99.90;;;;;;5082901;28;20039;-73
2022/06/08 01:12:47;;;;;;;15.95;6.70;;;9.40;99.90;;;;;;5048278;28;20496;-73
2022/06/08 01:15:16;;;;;;;13.02;6.40;;;9.40;99.90;;;;;;5067534;28;20040;-73
2022/06/08 01:17:42;;;;;;;15.40;6.40;;;9.40;99.90;;;;;;5065651;28;20495;-74
2022/06/08 01:20:10;;;;;;;14.63;6.30;;;9.40;99.90;;;;;;5067063;28;20079;-74
2022/06/08 01:22:36;;;;;;;17.00;7.65;;;9.40;99.90;;;;;;5064666;28;20056;-73
2022/06/08 01:25:03;;;;;;;12.48;6.18;;;9.30;99.90;;;;;;5083668;28;20386;-74
2022/06/08 01:27:47;;;;;;;14.18;6.15;;;9.40;99.90;;;;;;5049024;28;20074;-74
2022/06/08 01:30:19;;;;;;;13.90;6.47;;;9.30;99.90;;;;;;5064467;28;20028;-74
2022/06/08 01:33:02;;;;;;;11.85;5.85;;;9.30;99.90;;;;;;5084002;28;20166;-74
2022/06/08 01:35:37;;;;;;;15.07;6.45;;;9.30;99.90;;;;;;5081846;28;20076;-74
2022/06/08 01:38:16;;;;;;;11.77;6.15;;;9.40;99.90;;;;;;5063335;28;20103;-74
2022/06/08 01:41:21;;;;;;;13.07;5.97;;;9.30;99.90;;;;;;5047312;28;20522;-74
2022/06/08 01:44:22;;;;;;;15.75;6.10;;;9.30;99.90;;;;;;5063386;28;20047;-74
2022/06/08 01:47:08;;;;;;;13.53;6.33;;;9.30;99.90;;;;;;5032083;28;20082;-74
2022/06/08 01:49:41;;;;;;;17.25;6.20;;;9.30;99.90;;;;;;5064846;28;20040;-73
2022/06/08 01:52:28;;;;;;;15.40;6.88;;;9.30;99.90;;;;;;5068470;28;20047;-74
2022/06/08 01:55:17;;;;;;;12.88;6.18;;;9.30;99.90;;;;;;5066612;28;20137;-74
2022/06/08 01:58:11;;;;;;;15.77;6.60;;;9.30;99.90;;;;;;5069507;28;20040;-73
2022/06/08 02:00:43;;;;;;;16.98;6.32;;;9.30;99.90;;;;;;5087758;28;20120;-74
2022/06/08 02:03:30;;;;;;;14.05;6.07;;;9.30;99.90;;;;;;5064776;28;20051;-73
2022/06/08 02:06:13;;;;;;;14.70;6.78;;;9.30;99.90;;;;;;5086804;28;20048;-74
2022/06/08 02:08:57;;;;;;;13.45;6.22;;;9.30;99.90;;;;;;5070287;28;20055;-73
2022/06/08 02:11:39;;;;;;;11.80;6.10;;;9.30;99.90;;;;;;5069272;28;20075;-74
2022/06/08 02:14:14;;;;;;;12.65;6.50;;;9.30;99.90;;;;;;5064014;28;20048;-74
2022/06/08 02:16:52;;;;;;;10.90;6.97;;;9.30;99.90;;;;;;5087356;28;20040;-73
2022/06/08 02:19:32;;;;;;;16.73;6.38;;;9.30;99.90;;;;;;5067932;28;20043;-73
2022/06/08 02:22:15;;;;;;;13.65;6.15;;;9.40;99.90;;;;;;5066751;28;20036;-73
2022/06/08 02:24:49;;;;;;;11.70;6.85;;;9.50;99.90;;;;;;5070771;28;20104;-73
2022/06/08 02:27:20;;;;;;;14.68;7.43;;;9.50;99.90;;;;;;5070561;28;20404;-73
2022/06/08 02:29:53;;;;;;;17.25;6.47;;;9.50;99.90;;;;;;5088913;28;20123;-73
2022/06/08 02:35:19;;;;;;;18.20;7.93;;;9.50;99.90;;;;;;5085480;28;20048;-73
2022/06/08 02:37:50;;;;;;;14.40;7.03;;;9.50;99.90;;;;;;5067381;28;20098;-72
2022/06/08 02:40:21;;;;;;;17.73;7.82;;;9.50;99.90;;;;;;5067279;28;20059;-73
2022/06/08 02:42:54;;;;;;;12.07;7.87;;;9.50;99.90;;;;;;5067763;28;20378;-72
2022/06/08 02:45:29;;;;;;;15.15;7.72;;;9.50;99.90;;;;;;5069241;28;20302;-73
2022/06/08 02:48:00;;;;;;;15.40;8.18;;;9.60;99.90;;;;;;5070185;28;20450;-73
2022/06/08 02:50:27;;;;;;;;;;;9.60;99.90;;;;;;5067965;28;20048;-74
2022/06/08 02:53:16;;;;;;;18.35;8.80;;;9.60;99.90;;;;;;5066816;28;19920;-74
2022/06/08 02:55:56;;;;;;;21.90;9.32;;;9.60;99.90;;;;;;5090911;28;20036;-74
2022/06/08 02:58:30;;;;;;;19.05;9.73;;;9.60;99.90;;;;;;5056352;28;20510;-74
2022/06/08 03:01:03;;;;;;;18.90;9.68;;;9.60;99.90;;;;;;5051023;28;20048;-74
2022/06/08 03:03:38;;;;;;;25.80;11.02;;;9.70;99.90;;;;;;5068470;28;20046;-74
2022/06/08 03:06:09;;;;;;;19.40;10.05;;;9.70;99.90;;;;;;5066598;28;20051;-74
2022/06/08 03:08:42;;;;;;;20.42;9.70;;;9.70;99.90;;;;;;5072499;28;20059;-74
2022/06/08 03:11:09;;;;;;;21.88;11.23;;;9.70;99.90;;;;;;5084767;28;20040;-75
2022/06/08 03:13:45;;;;;;;19.67;11.02;;;9.70;99.90;;;;;;5066988;28;20056;-74
2022/06/08 03:16:29;;;;;;;19.27;11.00;;;9.70;99.90;;;;;;5068610;28;20444;-74
2022/06/08 03:18:55;;;;;;;24.48;11.18;;;9.70;99.90;;;;;;5068243;28;20036;-72
2022/06/08 03:21:21;;;;;;;20.05;11.40;;;9.90;99.90;;;;;;5085050;28;20051;-73
2022/06/08 03:23:48;;;;;;;23.35;11.65;;;9.80;99.90;;;;;;5066224;28;20052;-72
2022/06/08 03:26:15;;;;;;;21.10;12.70;;;9.80;99.90;;;;;;5086699;28;20048;-73
2022/06/08 03:28:41;;;;;;;30.35;13.85;;;9.80;99.90;;;;;;5084856;28;20044;-72
2022/06/08 03:31:07;;;;;;;20.60;11.77;;;9.80;99.90;;;;;;5067754;28;20044;-73
2022/06/08 03:33:32;;;;;;;24.05;12.85;;;9.80;99.90;;;;;;5065268;28;20035;-73
2022/06/08 03:35:59;;;;;;;27.88;13.93;;;9.90;99.90;;;;;;5068908;28;20392;-73
2022/06/08 03:38:24;;;;;;;25.88;13.18;;;9.80;99.90;;;;;;5083045;28;20048;-73
2022/06/08 03:40:50;;;;;;;25.33;13.32;;;9.80;99.90;;;;;;5086357;28;20571;-73
2022/06/08 03:43:16;;;;;;;27.33;14.82;;;9.80;99.90;;;;;;5066765;28;20136;-73
2022/06/08 03:45:49;;;;;;;28.27;14.88;;;9.90;99.90;;;;;;5069508;28;20051;-72
2022/06/08 03:48:15;;;;;;;29.77;15.07;;;9.90;99.90;;;;;;5067403;28;20058;-73
2022/06/08 03:50:43;;;;;;;28.20;15.07;;;9.90;99.90;;;;;;5067601;28;20048;-72
2022/06/08 03:53:14;;;;;;;27.30;15.50;;;10.00;99.90;;;;;;5049535;28;20039;-72
2022/06/08 03:55:40;;;;;;;27.98;16.08;;;10.00;99.90;;;;;;5068060;28;20439;-73
2022/06/08 03:58:07;;;;;;;26.98;15.02;;;10.10;99.90;;;;;;5047846;28;20050;-71
2022/06/08 04:00:34;;;;;;;31.52;16.92;;;10.10;99.90;;;;;;5060345;28;20040;-72
2022/06/08 04:03:01;;;;;;;27.02;17.10;;;10.20;99.90;;;;;;5058634;28;20040;-72
2022/06/08 04:05:28;;;;;;;29.00;16.42;;;10.20;99.90;;;;;;5045197;28;20047;-73
2022/06/08 04:07:53;;;;;;;24.13;15.98;;;10.30;99.90;;;;;;5064919;28;20047;-73
2022/06/08 04:10:19;;;;;;;23.33;15.82;;;10.30;99.90;;;;;;5058700;28;20036;-72
2022/06/08 04:12:45;;;;;;;26.63;16.63;;;10.40;99.90;;;;;;5064481;28;20082;-72
2022/06/08 04:15:41;;;;;;;27.52;16.20;;;10.50;99.90;;;;;;5052421;28;20048;-71
2022/06/08 04:17:57;;;;;;;26.30;16.40;;;10.60;99.90;;;;;;5064476;28;20058;-73
2022/06/08 04:20:22;;;;;;;27.88;16.60;;;10.90;99.90;;;;;;5085690;28;20493;-72
2022/06/08 04:22:48;;;;;;;26.90;18.13;;;11.00;99.90;;;;;;5068224;28;20043;-73
2022/06/08 04:25:14;;;;;;;31.70;17.55;;;11.00;99.90;;;;;;5068107;28;20050;-74
2022/06/08 04:27:40;;;;;;;25.20;16.95;;;11.10;99.90;;;;;;5087642;28;20126;-73
2022/06/08 04:30:06;;;;;;;24.92;17.08;;;11.40;99.90;;;;;;5070017;28;20500;-74
2022/06/08 04:32:32;;;;;;;30.63;17.45;;;11.50;99.90;;;;;;5064727;28;20127;-74
2022/06/08 04:34:58;;;;;;;23.30;17.83;;;12.30;99.90;;;;;;5056561;28;20062;-74
2022/06/08 04:37:24;;;;;;;25.25;16.58;;;13.40;99.90;;;;;;5060148;28;20044;-74
2022/06/08 04:39:50;;;;;;;22.60;16.10;;;13.50;99.90;;;;;;5059105;28;20105;-74
2022/06/08 04:42:16;;;;;;;21.13;14.35;;;13.50;99.90;;;;;;5062177;28;20054;-73
2022/06/08 04:44:42;;;;;;;22.15;14.60;;;13.30;99.90;;;;;;5043621;28;20397;-74
2022/06/08 04:47:08;;;;;;;24.48;15.80;;;13.20;99.90;;;;;;5041411;28;20375;-73
2022/06/08 04:49:35;;;;;;;25.52;17.17;;;13.00;99.90;;;;;;5040419;28;20093;-74
2022/06/08 04:52:01;;;;;;;25.75;17.60;;;12.90;99.90;;;;;;5055653;28;20197;-73
2022/06/08 04:54:27;;;;;;;25.15;16.00;;;12.80;99.90;;;;;;5061615;28;20067;-73
2022/06/08 04:56:53;;;;;;;24.60;17.52;;;12.70;99.90;;;;;;5062577;28;20134;-73
2022/06/08 04:59:18;;;;;;;23.13;15.82;;;12.60;99.90;;;;;;5078878;28;20082;-73
2022/06/08 05:01:44;;;;;;;28.05;18.00;;;12.40;99.90;;;;;;5077692;28;20532;-74
2022/06/08 05:04:10;;;;;;;30.80;18.25;;;12.60;99.90;;;;;;5083647;28;20052;-71
2022/06/08 05:06:35;;;;;;;28.00;18.05;;;12.50;99.90;;;;;;5064842;28;20036;-71
2022/06/08 05:09:01;;;;;;;28.65;19.90;;;12.50;99.90;;;;;;5053486;28;20059;-72
2022/06/08 05:11:27;;;;;;;24.25;17.42;;;12.50;99.90;;;;;;5062673;28;20142;-72
2022/06/08 05:13:53;;;;;;;29.90;18.92;;;12.50;99.90;;;;;;5042377;28;20591;-73
2022/06/08 05:16:20;;;;;;;26.88;19.02;;;12.50;99.90;;;;;;5043204;28;20117;-73
2022/06/08 05:18:45;;;;;;;31.35;18.50;;;12.60;99.90;;;;;;5060563;28;20529;-73
2022/06/08 05:21:11;;;;;;;31.52;19.85;;;12.60;99.90;;;;;;5049502;28;20092;-73
2022/06/08 05:23:39;;;;;;;28.95;19.30;;;12.60;99.90;;;;;;5060965;28;20123;-72
2022/06/08 05:26:08;;;;;;;29.35;18.83;;;12.70;99.90;;;;;;5083211;28;20040;-73
2022/06/08 05:28:36;;;;;;;31.33;19.92;;;12.70;99.90;;;;;;5064628;28;20064;-74
2022/06/08 05:31:02;;;;;;;28.23;19.52;;;12.70;99.90;;;;;;5062533;28;20048;-72
2022/06/08 05:33:28;;;;;;;28.25;19.15;;;12.70;99.90;;;;;;5062626;28;20083;-73
2022/06/08 05:35:55;;;;;;;32.53;19.77;;;12.80;99.90;;;;;;5083591;28;20072;-73
2022/06/08 05:38:21;;;;;;;30.23;22.67;;;12.80;99.90;;;;;;5073258;28;20115;-73
2022/06/08 05:40:47;;;;;;;30.80;20.83;;;12.90;99.90;;;;;;5062561;28;20058;-72
2022/06/08 05:43:15;;;;;;;30.70;20.52;;;13.00;99.90;;;;;;5076971;28;20048;-73
2022/06/08 05:45:42;;;;;;;31.20;22.42;;;13.00;99.90;;;;;;5057352;28;21660;-73
2022/06/08 05:48:09;;;;;;;29.58;20.85;;;13.00;99.90;;;;;;5039298;28;20416;-73
2022/06/08 05:50:36;;;;;;;32.58;21.17;;;13.10;99.90;;;;;;5057577;28;20168;-73
2022/06/08 05:53:02;;;;;;;30.73;20.77;;;13.30;99.90;;;;;;5045184;28;20047;-73
2022/06/08 05:55:28;;;;;;;30.23;22.00;;;13.40;99.90;;;;;;5046928;28;20104;-73
2022/06/08 05:57:54;;;;;;;33.38;20.52;;;13.60;99.90;;;;;;5056416;28;20245;-73
2022/06/08 06:00:26;;;;;;;30.10;20.75;;;13.90;99.90;;;;;;5078573;28;20182;-73
2022/06/08 06:02:52;;;;;;;33.88;22.60;;;14.00;99.90;;;;;;5063388;28;20063;-74
2022/06/08 06:05:21;;;;;;;25.33;18.65;;;14.10;99.90;;;;;;5078402;28;20460;-73
2022/06/08 06:07:47;;;;;;;29.55;19.50;;;14.20;99.90;;;;;;5047691;28;20079;-73
2022/06/08 06:10:15;;;;;;;26.40;18.88;;;14.30;99.90;;;;;;5061561;28;20535;-73
2022/06/08 06:12:40;;;;;;;26.27;18.15;;;14.40;99.90;;;;;;5081113;28;20091;-74
2022/06/08 06:15:07;;;;;;;30.13;19.67;;;14.70;99.90;;;;;;5062321;28;20052;-73
2022/06/08 06:17:33;;;;;;;26.20;19.45;;;15.00;99.90;;;;;;5066856;28;20036;-73
2022/06/08 06:19:59;;;;;;;21.95;16.15;;;15.80;99.90;;;;;;5061776;28;20054;-73
2022/06/08 06:22:25;;;;;;;25.92;17.33;;;16.10;99.90;;;;;;5079144;28;20048;-73
2022/06/08 06:24:52;;;;;;;24.35;16.45;;;16.10;99.90;;;;;;5077401;28;20275;-73
2022/06/08 06:27:18;;;;;;;22.50;16.95;;;16.10;99.90;;;;;;5079943;28;20037;-73
2022/06/08 06:29:44;;;;;;;25.92;16.88;;;16.10;99.90;;;;;;5063186;28;20052;-74
2022/06/08 06:32:21;;;;;;;21.92;17.20;;;16.00;99.90;;;;;;5079627;28;20101;-73
2022/06/08 06:34:47;;;;;;;22.88;16.83;;;16.00;99.90;;;;;;5063436;28;20143;-74
2022/06/08 06:37:13;;;;;;;22.48;15.75;;;16.00;99.90;;;;;;5084009;28;20514;-73
2022/06/08 06:39:39;;;;;;;23.23;16.70;;;16.10;99.90;;;;;;5046914;28;20063;-74
2022/06/08 06:42:05;;;;;;;21.73;15.45;;;16.20;99.90;;;;;;5058500;28;20040;-72
2022/06/08 06:44:30;;;;;;;25.25;14.98;;;16.40;99.90;;;;;;5039564;28;20055;-73
2022/06/08 06:46:56;;;;;;;20.88;15.35;;;16.50;99.90;;;;;;5077812;28;20862;-73
2022/06/08 06:49:22;;;;;;;21.65;16.00;;;16.70;99.90;;;;;;5063600;28;20044;-73
2022/06/08 06:51:48;;;;;;;20.77;15.48;;;16.70;99.90;;;;;;5061804;28;20063;-73
2022/06/08 06:54:14;;;;;;;25.08;16.27;;;16.60;99.90;;;;;;5062659;28;20044;-73
2022/06/08 06:56:40;;;;;;;20.95;13.95;;;16.60;99.90;;;;;;5064837;28;20044;-74
2022/06/08 06:59:05;;;;;;;18.92;14.55;;;16.60;99.90;;;;;;5060791;28;20044;-74
2022/06/08 07:01:34;;;;;;;20.85;14.27;;;16.70;99.90;;;;;;5062368;28;20125;-74
2022/06/08 07:03:59;;;;;;;21.13;14.43;;;16.70;99.90;;;;;;5047444;28;20048;-73
2022/06/08 07:06:25;;;;;;;20.17;14.40;;;16.70;99.90;;;;;;5059363;28;20055;-73
2022/06/08 07:08:51;;;;;;;20.20;14.15;;;16.70;99.90;;;;;;5071839;28;20584;-73
2022/06/08 07:11:32;;;;;;;17.58;13.48;;;16.70;99.90;;;;;;5065405;28;20047;-73
2022/06/08 07:14:00;;;;;;;18.88;13.18;;;16.80;99.90;;;;;;5055842;28;20087;-73
2022/06/08 07:16:26;;;;;;;18.83;13.02;;;16.80;99.90;;;;;;5038318;28;20040;-73
2022/06/08 07:18:52;;;;;;;20.63;14.65;;;16.90;99.90;;;;;;5056257;28;20617;-74
2022/06/08 07:21:18;;;;;;;17.80;12.50;;;16.90;99.90;;;;;;5054038;28;20088;-74
2022/06/08 07:23:44;;;;;;;19.77;11.38;;;17.00;99.90;;;;;;5054738;28;20118;-73
2022/06/08 07:26:11;;;;;;;18.02;11.00;;;17.10;99.90;;;;;;5059920;28;20469;-73
2022/06/08 07:28:38;;;;;;;18.42;11.05;;;17.20;99.90;;;;;;5057693;28;20114;-73
2022/06/08 07:31:04;;;;;;;16.88;11.07;;;17.20;99.90;;;;;;5057209;28;20048;-73
2022/06/08 07:33:31;;;;;;;15.70;10.65;;;17.10;99.90;;;;;;5056281;28;20546;-73
2022/06/08 07:35:57;;;;;;;18.23;11.13;;;17.10;99.90;;;;;;5058455;28;20050;-73
2022/06/08 07:38:23;;;;;;;13.98;10.15;;;17.10;99.90;;;;;;5040042;28;20051;-73
2022/06/08 07:40:49;;;;;;;13.75;9.50;;;17.10;99.90;;;;;;5057560;28;20048;-73
2022/06/08 07:43:15;;;;;;;16.73;9.88;;;17.10;99.90;;;;;;5056046;28;20082;-73
2022/06/08 07:45:40;;;;;;;13.80;8.55;;;17.10;99.90;;;;;;5057796;28;20579;-73
2022/06/08 07:50:52;;;;;;;12.13;8.50;;;17.10;99.90;;;;;;5035964;28;20114;-74
2022/06/08 07:53:18;;;;;;;14.35;8.60;;;17.00;99.90;;;;;;5056530;28;20028;-73
2022/06/08 07:55:44;;;;;;;12.52;9.48;;;17.00;99.90;;;;;;5057440;28;20055;-73
2022/06/08 07:58:10;;;;;;;12.48;8.85;;;17.10;99.90;;;;;;5056597;28;20124;-73
2022/06/08 08:00:36;;;;;;;12.13;8.32;;;17.20;99.90;;;;;;5056531;28;20048;-73
2022/06/08 08:03:02;;;;;;;11.25;8.05;;;17.30;99.90;;;;;;5057457;28;20052;-73
2022/06/08 08:05:28;;;;;;;12.77;7.82;;;17.40;99.90;;;;;;5056097;28;20041;-73
2022/06/08 08:07:54;;;;;;;12.45;7.75;;;17.60;99.90;;;;;;5056043;28;20393;-73
2022/06/08 08:10:24;;;;;;;11.43;7.53;;;17.80;99.90;;;;;;5055968;28;20552;-74
2022/06/08 08:12:51;;;;;;;14.52;8.45;;;18.20;99.90;;;;;;5055445;28;20048;-73
2022/06/08 08:15:17;;;;;;;11.90;7.93;;;18.80;99.90;;;;;;5070626;28;20417;-73
2022/06/08 08:17:44;;;;;;;11.95;7.63;;;19.40;99.90;;;;;;5077983;28;20506;-73
2022/06/08 08:20:13;;;;;;;10.98;6.10;;;19.80;99.90;;;;;;5060737;28;20071;-74
2022/06/08 08:22:39;;;;;;;12.80;5.55;;;20.00;99.90;;;;;;5058984;28;20659;-73
2022/06/08 08:25:06;;;;;;;8.55;4.35;;;20.20;99.90;;;;;;5071896;28;20052;-75
2022/06/08 08:27:31;;;;;;;8.73;4.50;;;20.50;99.90;;;;;;5075121;28;20044;-74
2022/06/08 08:29:57;;;;;;;8.90;4.60;;;20.80;99.90;;;;;;5073363;28;20040;-74
2022/06/08 08:32:23;;;;;;;7.78;4.70;;;21.10;99.90;;;;;;5057245;28;20559;-73
2022/06/08 08:34:48;;;;;;;7.53;4.20;;;21.00;99.90;;;;;;5055850;28;20044;-75
2022/06/08 08:37:14;;;;;;;8.65;4.05;;;20.70;99.90;;;;;;5060008;28;20083;-73
2022/06/08 08:39:40;;;;;;;6.80;3.50;;;20.50;99.90;;;;;;5058131;28;20535;-73
2022/06/08 08:42:21;;;;;;;6.70;3.17;;;20.40;99.90;;;;;;5044966;28;20364;-73
2022/06/08 08:44:59;;;;;;;5.97;3.00;;;20.40;99.90;;;;;;5057965;28;20087;-73
2022/06/08 08:48:02;;;;;;;6.05;2.47;;;20.50;99.90;;;;;;5042423;28;20048;-73
2022/06/08 08:50:44;;;;;;;4.82;2.05;;;20.70;99.90;;;;;;5078127;28;20044;-74
2022/06/08 08:53:24;;;;;;;3.67;1.90;;;20.70;99.90;;;;;;5078999;28;20049;-74
2022/06/08 08:56:05;;;;;;;5.97;2.08;;;20.90;99.90;;;;;;5061241;28;20461;-73
2022/06/08 08:58:44;;;;;;;4.70;1.90;;;21.10;99.90;;;;;;5073846;28;20177;-74
2022/06/08 09:01:34;;;;;;;5.68;1.88;;;21.00;99.90;;;;;;5062517;28;20048;-73
2022/06/08 09:04:05;;;;;;;5.85;2.00;;;21.20;99.90;;;;;;5047626;28;20430;-73
2022/06/08 09:06:33;;;;;;;4.35;1.70;;;21.20;99.90;;;;;;5046059;28;20040;-73
2022/06/08 09:09:02;;;;;;;4.88;1.83;;;21.10;99.90;;;;;;5064572;28;20036;-74
2022/06/08 09:11:41;;;;;;;4.30;1.60;;;20.90;99.90;;;;;;5060931;28;20040;-74
2022/06/08 09:14:25;;;;;;;4.47;1.75;;;20.70;99.90;;;;;;5061373;28;20095;-73
2022/06/08 09:17:08;;;;;;;9.98;2.05;;;20.50;99.90;;;;;;5061092;28;20044;-73
2022/06/08 09:19:43;;;;;;;7.05;2.35;;;20.40;99.90;;;;;;5059877;28;20521;-73
2022/06/08 09:22:08;;;;;;;6.00;2.30;;;20.40;99.90;;;;;;5056003;28;20098;-74
2022/06/08 09:24:58;;;;;;;6.03;2.15;;;20.40;99.90;;;;;;5063189;28;20041;-73
2022/06/08 09:27:27;;;;;;;5.32;2.30;;;20.50;99.90;;;;;;5062813;28;20837;-73
2022/06/08 09:29:53;;;;;;;6.13;2.60;;;20.70;99.90;;;;;;5044350;28;20135;-73
2022/06/08 09:32:29;;;;;;;5.95;2.30;;;21.20;99.90;;;;;;5062404;28;20055;-75
2022/06/08 09:34:58;;;;;;;5.25;2.03;;;21.70;99.90;;;;;;5045345;28;20102;-74
2022/06/08 09:37:26;;;;;;;6.53;2.33;;;22.30;99.90;;;;;;5064600;28;20131;-74
2022/06/08 09:39:58;;;;;;;5.40;1.80;;;22.60;99.90;;;;;;5057840;28;20060;-74
2022/06/08 09:42:56;;;;;;;5.68;1.80;;;22.70;99.90;;;;;;5040050;28;20056;-74
2022/06/08 09:45:21;;;;;;;5.22;1.83;;;23.10;99.90;;;;;;5059803;28;20048;-74
2022/06/08 09:54:07;;;;;;;4.50;1.75;;;23.50;99.90;;;;;;5056811;28;20048;-73
2022/06/08 09:56:54;;;;;;;4.82;1.70;;;23.00;99.90;;;;;;5058592;28;20056;-74
2022/06/08 09:59:25;;;;;;;4.20;1.40;;;22.70;99.90;;;;;;5060814;28;20056;-74
2022/06/08 10:02:00;;;;;;;2.28;1.20;;;22.50;99.90;;;;;;5060392;28;20405;-73
2022/06/08 10:05:10;;;;;;;3.03;1.20;;;22.30;99.90;;;;;;5057328;28;20614;-74
2022/06/08 10:07:39;;;;;;;7.13;1.80;;;22.00;99.90;;;;;;5057844;28;20705;-75
2022/06/08 10:10:22;;;;;;;3.42;1.67;;;21.80;99.90;;;;;;5045636;28;20048;-74
2022/06/08 10:12:59;;;;;;;3.22;1.38;;;21.60;99.90;;;;;;5064164;28;20044;-74
2022/06/08 10:15:34;;;;;;;3.40;1.55;;;21.60;99.90;;;;;;5045781;28;20162;-74
2022/06/08 10:18:12;;;;;;;3.78;1.50;;;22.00;99.90;;;;;;5047008;28;20040;-74
2022/06/08 10:20:44;;;;;;;4.45;1.58;;;22.70;99.90;;;;;;5063180;28;20051;-74
2022/06/08 10:23:41;;;;;;;5.00;1.88;;;23.30;99.90;;;;;;5079655;28;20774;-74
2022/06/08 10:26:44;;;;;;;4.63;1.60;;;23.70;99.90;;;;;;5042348;28;20059;-73
2022/06/08 10:29:16;;;;;;;5.00;2.28;;;23.80;99.90;;;;;;5061492;28;20131;-73
2022/06/08 10:31:56;;;;;;;5.20;2.50;;;24.10;99.90;;;;;;5078529;28;20044;-74
2022/06/08 10:34:27;;;;;;;5.55;2.17;;;24.00;99.90;;;;;;5061232;28;20060;-75
2022/06/08 10:37:04;;;;;;;5.75;2.83;;;23.90;99.90;;;;;;5047270;28;20086;-74
2022/06/08 10:39:32;;;;;;;4.93;2.20;;;24.10;99.90;;;;;;5079174;28;20071;-74
2022/06/08 10:42:41;;;;;;;5.60;2.40;;;24.10;99.90;;;;;;5043234;28;20063;-74
2022/06/08 10:45:24;;;;;;;5.63;2.47;;;23.80;99.90;;;;;;5077751;28;20044;-74
2022/06/08 10:47:58;;;;;;;5.38;1.98;;;23.40;99.90;;;;;;5077933;28;20044;-75
2022/06/08 10:50:34;;;;;;;4.10;1.88;;;23.00;99.90;;;;;;5048914;28;20082;-75
2022/06/08 10:56:34;;;;;;;5.93;2.03;;;22.30;99.90;;;;;;5060241;28;20415;-75
2022/06/08 10:59:03;;;;;;;5.38;1.92;;;22.00;99.90;;;;;;5043122;28;20040;-75
2022/06/08 11:01:52;;;;;;;3.28;1.52;;;21.70;99.90;;;;;;5060678;28;20043;-74
2022/06/08 11:04:27;;;;;;;6.90;1.75;;;21.40;99.90;;;;;;5082035;28;20110;-74
2022/06/08 11:07:10;;;;;;;5.75;1.80;;;21.30;99.90;;;;;;5061319;28;20458;-74
2022/06/08 11:09:36;;;;;;;3.50;1.55;;;21.10;99.90;;;;;;5081507;28;20545;-73
2022/06/08 11:12:13;;;;;;;7.55;2.50;;;20.90;99.90;;;;;;5082497;28;20134;-75
2022/06/08 11:14:48;;;;;;;6.10;2.45;;;20.70;99.90;;;;;;5064035;28;20052;-75
2022/06/08 11:17:48;;;;;;;8.00;3.80;;;20.40;99.90;;;;;;5045970;28;20044;-76
2022/06/08 11:20:35;;;;;;;10.38;3.92;;;20.00;99.90;;;;;;5063402;28;20380;-76
2022/06/08 11:23:16;;;;;;;6.60;3.38;;;19.60;99.90;;;;;;5076404;28;20232;-75
2022/06/08 11:26:05;;;;;;;7.70;3.55;;;19.40;99.90;;;;;;5057734;28;20123;-75
2022/06/08 11:28:59;;;;;;;8.20;4.13;;;19.30;99.90;;;;;;5078612;28;20117;-75
2022/06/08 11:31:28;;;;;;;7.13;3.60;;;19.30;99.90;;;;;;5044853;28;20161;-76
2022/06/08 11:34:29;;;;;;;8.98;3.83;;;19.40;99.90;;;;;;5046132;28;20048;-75
2022/06/08 11:37:24;;;;;;;7.72;3.90;;;19.50;99.90;;;;;;5005800;28;20116;-75
2022/06/08 11:39:59;;;;;;;8.27;3.92;;;19.50;99.90;;;;;;5057123;28;20086;-75
2022/06/08 11:42:32;;;;;;;6.13;4.00;;;19.50;99.90;;;;;;5058004;28;20078;-75
2022/06/08 11:45:14;;;;;;;9.57;5.05;;;19.50;99.90;;;;;;5059046;28;20043;-75
2022/06/08 11:47:50;;;;;;;9.23;4.80;;;19.40;99.90;;;;;;5076023;28;20040;-75
2022/06/08 11:50:23;;;;;;;7.65;4.63;;;19.20;99.90;;;;;;5058293;28;20059;-75
2022/06/08 11:53:24;;;;;;;9.63;5.47;;;19.10;99.90;;;;;;5061790;28;20040;-76
2022/06/08 11:56:09;;;;;;;7.15;4.80;;;19.00;99.90;;;;;;5037240;28;20052;-76
2022/06/08 11:58:36;;;;;;;8.60;4.80;;;19.00;99.90;;;;;;5059255;28;20857;-75
2022/06/08 12:01:08;;;;;;;8.90;4.95;;;19.00;99.90;;;;;;5035950;28;20484;-74
2022/06/08 12:03:42;;;;;;;8.18;5.07;;;19.10;99.90;;;;;;5040193;28;20052;-74
2022/06/08 12:06:36;;;;;;;8.63;5.43;;;19.20;99.90;;;;;;5058124;28;20136;-75
2022/06/08 12:09:26;;;;;;;9.30;5.45;;;19.40;99.90;;;;;;5059436;28;20054;-75
2022/06/08 12:12:11;;;;;;;8.60;5.15;;;19.70;99.90;;;;;;5059805;28;20674;-74
2022/06/08 12:14:38;;;;;;;9.35;5.70;;;19.80;99.90;;;;;;5056908;28;20103;-75
2022/06/08 12:17:23;;;;;;;8.57;5.72;;;20.00;99.90;;;;;;5063183;28;20066;-75
2022/06/08 12:19:58;;;;;;;8.70;5.60;;;20.10;99.90;;;;;;5061888;28;20097;-74
2022/06/08 12:22:27;;;;;;;9.57;5.53;;;20.40;99.90;;;;;;5080080;28;20460;-74
2022/06/08 12:25:23;;;;;;;10.32;5.35;;;20.50;99.90;;;;;;5036547;28;20105;-75
2022/06/08 12:28:21;;;;;;;9.77;6.43;;;20.90;99.90;;;;;;5061002;28;20400;-74
2022/06/08 12:30:49;;;;;;;9.15;5.60;;;21.10;99.90;;;;;;5057784;28;20388;-74
2022/06/08 12:33:18;;;;;;;11.35;6.68;;;21.20;99.90;;;;;;5058465;28;20047;-74
2022/06/08 12:36:08;;;;;;;10.13;6.03;;;21.10;99.90;;;;;;5079382;28;20047;-74
2022/06/08 12:38:57;;;;;;;9.27;5.90;;;20.90;99.90;;;;;;5061296;28;20080;-74
2022/06/08 12:41:57;;;;;;;10.95;6.13;;;20.60;99.90;;;;;;5067722;28;20317;-74
2022/06/08 12:44:28;;;;;;;12.55;4.93;;;20.40;99.90;;;;;;5071865;28;20058;-74
2022/06/08 12:47:14;;;;;;;10.55;5.10;;;20.10;99.90;;;;;;5068276;28;20320;-74
2022/06/08 12:49:47;;;;;;;10.63;4.50;;;19.90;99.90;;;;;;5063799;28;20044;-74
2022/06/08 12:52:26;;;;;;;8.50;3.95;;;19.70;99.90;;;;;;5066650;28;20508;-74
2022/06/08 12:54:53;;;;;;;7.78;3.67;;;19.60;99.90;;;;;;5046507;28;20040;-75
2022/06/08 12:57:23;;;;;;;8.90;3.95;;;19.50;99.90;;;;;;5082166;28;20062;-74
2022/06/08 12:59:53;;;;;;;10.80;4.78;;;19.50;99.90;;;;;;5059475;28;20163;-74
2022/06/08 13:02:32;;;;;;;8.57;4.45;;;19.50;99.90;;;;;;5079582;28;20374;-74
2022/06/08 13:04:59;;;;;;;8.60;4.40;;;19.50;99.90;;;;;;5076083;28;20052;-74
2022/06/08 13:07:29;;;;;;;8.43;4.93;;;19.40;99.90;;;;;;5052610;28;20048;-74
2022/06/08 13:09:55;;;;;;;10.55;4.68;;;19.40;99.90;;;;;;5067119;28;20059;-74
2022/06/08 13:12:25;;;;;;;8.23;4.60;;;19.30;99.90;;;;;;5053367;28;20081;-75
2022/06/08 13:14:51;;;;;;;9.45;5.10;;;19.20;99.90;;;;;;5038639;28;20052;-73
2022/06/08 13:17:19;;;;;;;11.65;5.43;;;19.20;99.90;;;;;;5037164;28;20060;-74
2022/06/08 13:19:46;;;;;;;9.95;4.80;;;19.20;99.90;;;;;;5056208;28;20046;-75
2022/06/08 13:22:12;;;;;;;10.05;4.93;;;19.10;99.90;;;;;;5039708;28;20194;-75